Time;durP1;ratioP1;P1;durP2;ratioP2;P2;SDS_P1;SDS_P2;PMS_P1;PMS_P2;Temp;Humidity;BMP_temperature;BMP_pressure;BME280_temperature;BME280_humidity;BME280_pressure;Samples;Min_cycle;Max_cycle;Signal;HPM_P1;HPM_P2
2022/04/04 00:02:14;;;;;;;9.27;5.30;;;;;;;1.82;72.69;101857.00;4756629;30;20066;-90
2022/04/04 00:04:40;;;;;;;8.23;5.43;;;;;;;1.87;72.60;101872.69;4740315;30;20043;-90
2022/04/04 00:07:05;;;;;;;13.60;5.85;;;;;;;1.78;72.89;101873.47;4743406;30;20060;-89
2022/04/04 00:09:31;;;;;;;8.82;5.93;;;;;;;1.83;73.22;101863.97;4742578;30;20456;-90
2022/04/04 00:11:56;;;;;;;10.75;5.57;;;;;;;1.82;72.45;101863.91;4756584;30;20039;-90
2022/04/04 00:14:21;;;;;;;13.73;6.65;;;;;;;1.72;73.23;101850.75;4745162;30;20401;-90
2022/04/04 00:16:47;;;;;;;7.38;5.68;;;;;;;1.75;73.37;101853.44;4741917;30;20032;-90
2022/04/04 00:19:13;;;;;;;10.98;6.57;;;;;;;1.67;73.24;101846.34;4742432;30;20070;-90
2022/04/04 00:21:38;;;;;;;8.82;6.30;;;;;;;1.66;73.47;101840.28;4740014;30;20074;-90
2022/04/04 00:24:04;;;;;;;9.60;6.38;;;;;;;1.67;72.88;101831.59;4758682;30;20529;-90
2022/04/04 00:26:29;;;;;;;10.35;6.55;;;;;;;1.68;72.62;101835.06;4756937;30;20056;-90
2022/04/04 00:28:55;;;;;;;12.43;7.32;;;;;;;1.64;73.66;101831.56;4741442;30;20135;-90
2022/04/04 00:31:20;;;;;;;9.73;6.43;;;;;;;1.72;72.86;101845.56;4755394;30;20043;-90
2022/04/04 00:33:46;;;;;;;10.52;6.65;;;;;;;1.65;73.30;101832.44;4742011;30;20032;-90
2022/04/04 00:36:13;;;;;;;10.88;7.30;;;;;;;1.64;73.70;101834.19;4756198;30;20099;-90
2022/04/04 00:38:39;;;;;;;13.95;7.85;;;;;;;1.65;73.43;101829.84;4758302;30;20585;-90
2022/04/04 00:41:13;;;;;;;11.15;6.90;;;;;;;1.60;73.70;101815.88;4743663;30;20024;-90
2022/04/04 00:43:39;;;;;;;14.95;7.25;;;;;;;1.52;73.62;101813.16;4742037;30;20139;-90
2022/04/04 00:46:11;;;;;;;10.00;6.68;;;;;;;1.63;73.41;101811.59;4753178;30;20107;-90
2022/04/04 00:48:37;;;;;;;14.45;7.05;;;;;;;1.64;73.27;101815.94;4741782;30;20408;-90
2022/04/04 00:51:03;;;;;;;11.15;6.57;;;;;;;1.57;73.62;101802.81;4742146;30;20039;-90
2022/04/04 00:53:30;;;;;;;16.25;7.40;;;;;;;1.55;73.94;101794.09;4756594;30;20483;-89
2022/04/04 00:55:55;;;;;;;10.45;7.47;;;;;;;1.62;73.65;101807.22;4742954;30;20100;-89
2022/04/04 00:58:22;;;;;;;12.65;7.25;;;;;;;1.64;73.98;101804.66;4742575;30;20040;-89
2022/04/04 01:00:48;;;;;;;15.35;8.02;;;;;;;1.57;73.70;101793.25;4743623;30;20101;-91
2022/04/04 01:03:15;;;;;;;10.52;7.47;;;;;;;1.57;73.57;101780.22;4743075;30;20682;-90
2022/04/04 01:05:44;;;;;;;10.85;7.07;;;;;;;1.66;73.45;101785.53;4739902;30;20032;-90
2022/04/04 01:08:14;;;;;;;9.98;7.05;;;;;;;1.72;73.29;101787.34;4738682;30;20046;-90
2022/04/04 01:10:43;;;;;;;14.43;8.07;;;;;;;1.73;73.60;101791.72;4757695;30;20046;-91
2022/04/04 01:13:12;;;;;;;10.20;6.55;;;;;;;1.79;73.78;101783.94;4741077;30;20177;-90
2022/04/04 01:15:38;;;;;;;11.75;7.07;;;;;;;1.68;73.21;101760.38;4741772;30;20096;-90
2022/04/04 01:18:05;;;;;;;9.90;6.93;;;;;;;1.83;73.37;101764.88;4743040;30;20869;-90
2022/04/04 01:20:31;;;;;;;8.75;5.90;;;;;;;1.91;72.30;101754.50;4743323;30;20028;-90
2022/04/04 01:22:56;;;;;;;11.07;6.65;;;;;;;1.92;72.48;101751.06;4752964;30;20032;-90
2022/04/04 01:25:24;;;;;;;10.07;6.03;;;;;;;1.98;72.17;101744.16;4757635;30;20047;-91
2022/04/04 01:27:50;;;;;;;12.38;7.57;;;;;;;1.97;72.35;101746.78;4756227;30;20092;-90
2022/04/04 01:30:15;;;;;;;10.05;6.75;;;;;;;1.96;71.99;101732.00;4757754;30;20044;-90
2022/04/04 01:32:41;;;;;;;10.90;6.82;;;;;;;1.97;72.14;101742.44;4739407;30;20135;-90
2022/04/04 01:35:07;;;;;;;11.70;7.38;;;;;;;1.88;71.60;101725.81;4737813;30;20031;-91
2022/04/04 01:37:32;;;;;;;11.23;7.00;;;;;;;1.92;71.90;101733.69;4741392;30;20501;-90
2022/04/04 01:39:58;;;;;;;10.57;6.97;;;;;;;1.85;71.38;101713.63;4735822;30;20052;-89
2022/04/04 01:42:24;;;;;;;11.00;7.28;;;;;;;1.95;70.98;101710.22;4738099;30;20032;-90
2022/04/04 01:44:50;;;;;;;10.32;5.90;;;;;;;1.94;70.97;101695.44;4738761;30;20577;-90
2022/04/04 01:47:15;;;;;;;8.82;6.72;;;;;;;2.01;70.55;101706.81;4739001;30;20111;-90
2022/04/04 01:49:41;;;;;;;10.98;7.05;;;;;;;2.04;70.83;101704.22;4741020;30;20050;-90
2022/04/04 01:52:06;;;;;;;9.90;6.43;;;;;;;1.87;70.57;101669.31;4739738;30;20044;-90
2022/04/04 01:54:32;;;;;;;11.55;7.10;;;;;;;2.04;70.63;101685.97;4737441;30;20071;-90
2022/04/04 01:56:57;;;;;;;13.13;7.35;;;;;;;2.03;70.62;101690.31;4739855;30;20041;-91
2022/04/04 01:59:23;;;;;;;11.75;7.80;;;;;;;1.99;70.28;101672.88;4735320;30;20067;-90
2022/04/04 02:01:48;;;;;;;13.50;7.65;;;;;;;2.07;69.86;101672.09;4737766;30;20036;-89
2022/04/04 02:04:13;;;;;;;12.13;7.03;;;;;;;2.19;69.88;101665.25;4740264;30;20451;-91
2022/04/04 02:06:39;;;;;;;9.57;6.75;;;;;;;2.15;69.82;101655.66;4739788;30;20032;-90
2022/04/04 02:09:05;;;;;;;8.13;6.20;;;;;;;2.18;69.73;101663.47;4738594;30;20447;-90
2022/04/04 02:11:30;;;;;;;13.68;6.32;;;;;;;2.28;69.34;101664.41;4735036;30;20052;-90
2022/04/04 02:13:57;;;;;;;13.02;6.88;;;;;;;2.17;69.55;101640.88;4735523;30;20035;-89
2022/04/04 02:16:23;;;;;;;10.45;7.75;;;;;;;2.21;69.53;101653.06;4736104;30;20040;-89
2022/04/04 02:18:48;;;;;;;9.70;6.45;;;;;;;2.26;69.86;101655.72;4739286;30;20551;-91
2022/04/04 02:21:13;;;;;;;9.60;6.30;;;;;;;2.19;69.75;101639.16;4739804;30;20038;-90
2022/04/04 02:23:39;;;;;;;9.73;6.30;;;;;;;2.22;70.14;101659.16;4740360;30;20143;-90
2022/04/04 02:26:05;;;;;;;7.97;6.13;;;;;;;2.17;69.90;101633.03;4735510;30;20024;-90
2022/04/04 02:28:30;;;;;;;9.82;6.07;;;;;;;2.25;70.00;101643.53;4738980;30;20032;-89
2022/04/04 02:30:56;;;;;;;9.55;6.28;;;;;;;2.23;69.77;101640.03;4737157;30;20047;-91
2022/04/04 02:33:23;;;;;;;13.30;7.05;;;;;;;2.14;69.96;101613.88;4739061;30;20032;-89
2022/04/04 02:35:52;;;;;;;8.75;5.85;;;;;;;2.25;69.88;101628.75;4740031;30;20486;-90
2022/04/04 02:38:19;;;;;;;9.55;6.40;;;;;;;2.32;69.79;101614.00;4746455;30;20047;-90
2022/04/04 02:40:45;;;;;;;10.15;6.55;;;;;;;2.31;70.12;101609.66;4746162;30;20054;-89
2022/04/04 02:43:10;;;;;;;9.77;6.70;;;;;;;2.34;69.91;101598.38;4742481;30;20039;-89
2022/04/04 02:45:36;;;;;;;12.05;6.78;;;;;;;2.32;70.07;101602.69;4743235;30;20397;-90
2022/04/04 02:48:02;;;;;;;10.30;6.35;;;;;;;2.41;70.11;101603.63;4762131;30;20107;-90
2022/04/04 02:50:28;;;;;;;10.50;6.18;;;;;;;2.42;70.22;101602.75;4746060;30;20040;-90
2022/04/04 02:52:53;;;;;;;11.82;6.47;;;;;;;2.40;70.06;101588.84;4758369;30;20430;-91
2022/04/04 02:58:03;;;;;;;9.80;6.72;;;;;;;2.44;69.66;101576.69;4759390;30;20047;-90
2022/04/04 03:00:28;;;;;;;11.05;6.55;;;;;;;2.46;69.98;101577.53;4743060;30;20028;-90
2022/04/04 03:02:56;;;;;;;8.93;6.40;;;;;;;2.41;70.45;101571.44;4746302;30;20537;-91
2022/04/04 03:05:21;;;;;;;9.35;5.88;;;;;;;2.46;70.08;101556.66;4743993;30;20059;-90
2022/04/04 03:07:47;;;;;;;11.48;5.43;;;;;;;2.44;70.41;101558.41;4744874;30;20477;-90
2022/04/04 03:10:13;;;;;;;9.18;5.85;;;;;;;2.47;69.88;101556.69;4757963;30;20047;-90
2022/04/04 03:12:44;;;;;;;9.20;6.18;;;;;;;2.43;70.19;101549.72;4740797;30;20062;-89
2022/04/04 03:15:14;;;;;;;11.98;6.75;;;;;;;2.50;70.29;101559.31;4743698;30;20160;-90
2022/04/04 03:17:41;;;;;;;12.52;6.63;;;;;;;2.52;70.62;101548.88;4759839;30;20120;-90
2022/04/04 03:20:09;;;;;;;8.80;6.10;;;;;;;2.41;70.27;101532.28;4760384;30;20573;-89
2022/04/04 03:22:43;;;;;;;8.18;6.13;;;;;;;2.53;70.52;101538.44;4744000;30;20478;-91
2022/04/04 03:25:10;;;;;;;9.15;6.20;;;;;;;2.57;70.57;101534.13;4745649;30;20127;-90
2022/04/04 03:27:36;;;;;;;10.23;5.80;;;;;;;2.54;70.82;101521.91;4744083;30;20039;-91
2022/04/04 03:30:04;;;;;;;9.98;6.30;;;;;;;2.60;70.61;101526.28;4760008;30;20101;-90
2022/04/04 03:32:29;;;;;;;10.23;6.25;;;;;;;2.51;70.13;101503.63;4743719;30;20039;-90
2022/04/04 03:34:54;;;;;;;12.25;6.75;;;;;;;2.48;70.54;101490.59;4745822;30;20660;-91
2022/04/04 03:37:20;;;;;;;9.88;6.47;;;;;;;2.61;70.36;101491.50;4742973;30;20058;-91
2022/04/04 03:39:45;;;;;;;10.15;6.10;;;;;;;2.56;70.71;101498.41;4736704;30;20530;-91
2022/04/04 03:42:10;;;;;;;9.30;5.50;;;;;;;2.61;70.79;101483.66;4742826;30;20103;-90
2022/04/04 03:44:36;;;;;;;9.18;6.13;;;;;;;2.71;70.93;101500.22;4736859;30;20028;-90
2022/04/04 03:47:02;;;;;;;11.90;6.30;;;;;;;2.72;70.67;101478.47;4741592;30;20029;-90
2022/04/04 03:49:27;;;;;;;8.35;5.65;;;;;;;2.77;70.12;101474.13;4739590;30;20047;-91
2022/04/04 03:51:53;;;;;;;8.13;5.13;;;;;;;2.80;70.76;101472.41;4740789;30;20044;-90
2022/04/04 03:54:18;;;;;;;10.32;5.82;;;;;;;2.76;70.80;101456.72;4730851;30;20094;-91
2022/04/04 03:56:45;;;;;;;10.63;7.15;;;;;;;2.81;71.02;101465.44;4744309;30;20038;-91
2022/04/04 03:59:11;;;;;;;10.23;5.75;;;;;;;2.79;70.61;101460.19;4736533;30;20044;-90
2022/04/04 04:01:37;;;;;;;12.10;5.47;;;;;;;2.83;70.48;101458.47;4739213;30;20425;-89
2022/04/04 04:04:02;;;;;;;8.85;5.57;;;;;;;2.85;70.97;101453.25;4739349;30;20210;-91
2022/04/04 04:06:30;;;;;;;10.77;7.13;;;;;;;2.93;70.97;101464.56;4740393;30;20546;-90
2022/04/04 04:08:57;;;;;;;12.25;6.03;;;;;;;2.89;70.76;101452.38;4738270;30;20830;-90
2022/04/04 04:11:22;;;;;;;9.63;4.97;;;;;;;2.92;70.82;101447.16;4739672;30;20075;-90
2022/04/04 04:13:47;;;;;;;9.20;5.63;;;;;;;2.80;70.75;101417.56;4738883;30;20479;-90
2022/04/04 04:16:13;;;;;;;7.78;5.63;;;;;;;2.96;71.07;101435.84;4736131;30;20044;-90
2022/04/04 04:18:39;;;;;;;10.13;6.38;;;;;;;2.98;70.92;101428.88;4741027;30;20050;-91
2022/04/04 04:21:07;;;;;;;9.18;6.57;;;;;;;2.94;71.09;101428.03;4740325;30;20040;-90
2022/04/04 04:23:33;;;;;;;17.10;7.25;;;;;;;2.96;71.38;101426.28;4738699;30;20040;-90
2022/04/04 04:25:58;;;;;;;12.35;7.05;;;;;;;3.03;71.13;101432.34;4740767;30;20047;-90
2022/04/04 04:28:24;;;;;;;10.40;6.50;;;;;;;3.06;71.26;101432.38;4738349;30;20498;-90
2022/04/04 04:30:49;;;;;;;11.60;8.20;;;;;;;2.94;71.52;101399.28;4740973;30;20032;-90
2022/04/04 04:33:15;;;;;;;12.25;7.30;;;;;;;3.06;71.06;101417.56;4738383;30;20024;-90
2022/04/04 04:35:40;;;;;;;10.68;6.10;;;;;;;3.05;71.00;101404.50;4737470;30;20043;-90
2022/04/04 04:38:07;;;;;;;12.27;6.88;;;;;;;3.13;70.80;101397.53;4736806;30;20113;-91
2022/04/04 04:40:33;;;;;;;11.35;6.75;;;;;;;3.10;71.10;101386.22;4741137;30;20067;-90
2022/04/04 04:42:59;;;;;;;9.73;5.70;;;;;;;3.15;71.17;101387.09;4738433;30;20028;-89
2022/04/04 04:45:24;;;;;;;9.80;6.45;;;;;;;3.12;71.22;101387.06;4738688;30;20414;-90
2022/04/04 04:47:50;;;;;;;14.07;7.55;;;;;;;3.16;71.17;101370.53;4738160;30;20587;-90
2022/04/04 04:50:18;;;;;;;8.05;5.28;;;;;;;3.23;70.41;101365.31;4742800;30;20036;-90
2022/04/04 04:52:46;;;;;;;10.43;6.70;;;;;;;3.30;70.74;101376.59;4737207;30;20032;-91
2022/04/04 04:55:13;;;;;;;9.57;6.60;;;;;;;3.20;71.20;101362.69;4740179;30;20032;-90
2022/04/04 04:57:39;;;;;;;11.85;8.05;;;;;;;3.03;70.71;101328.78;4737598;30;20184;-90
2022/04/04 05:00:06;;;;;;;13.93;7.93;;;;;;;3.30;71.13;101360.94;4740315;30;20047;-90
2022/04/04 05:02:33;;;;;;;9.80;6.97;;;;;;;3.30;70.92;101351.34;4735471;30;20040;-91
2022/04/04 05:04:59;;;;;;;12.40;7.30;;;;;;;3.35;71.15;101358.31;4740651;30;20074;-90
2022/04/04 05:07:25;;;;;;;11.60;6.75;;;;;;;3.35;70.73;101334.78;4735838;30;20082;-91
2022/04/04 05:09:50;;;;;;;12.88;8.25;;;;;;;3.39;71.31;101342.63;4740180;30;20040;-90
2022/04/04 05:12:16;;;;;;;10.52;7.85;;;;;;;3.31;70.89;101318.22;4733941;30;20311;-88
2022/04/04 05:14:42;;;;;;;10.90;7.75;;;;;;;3.43;70.79;101327.81;4738756;30;20089;-89
2022/04/04 05:17:08;;;;;;;12.88;8.15;;;;;;;3.45;70.41;101312.97;4740141;30;20056;-90
2022/04/04 05:19:34;;;;;;;13.20;7.50;;;;;;;3.55;70.38;101323.41;4739525;30;20449;-89
2022/04/04 05:21:59;;;;;;;12.15;7.47;;;;;;;3.55;70.65;101312.94;4739824;30;20040;-92
2022/04/04 05:24:24;;;;;;;12.13;7.93;;;;;;;3.54;70.21;101303.38;4736671;30;20036;-92
2022/04/04 05:26:50;;;;;;;13.80;7.97;;;;;;;3.61;70.43;101295.50;4740379;30;20051;-91
2022/04/04 05:29:17;;;;;;;10.95;7.80;;;;;;;3.72;70.52;101309.38;4738113;30;20098;-91
2022/04/04 05:31:45;;;;;;;11.32;7.47;;;;;;;3.75;70.07;101305.03;4739095;30;20032;-91
2022/04/04 05:34:11;;;;;;;10.73;7.32;;;;;;;3.75;70.00;101293.69;4736652;30;20409;-91
2022/04/04 05:36:36;;;;;;;12.95;8.18;;;;;;;3.68;69.68;101265.81;4742924;30;20105;-91
2022/04/04 05:39:03;;;;;;;12.35;8.30;;;;;;;3.87;69.86;101292.75;4737991;30;20080;-90
2022/04/04 05:41:29;;;;;;;13.18;8.85;;;;;;;3.84;70.01;101293.66;4739724;30;20234;-90
2022/04/04 05:43:54;;;;;;;12.00;7.28;;;;;;;3.88;70.18;101290.13;4736952;30;20047;-90
2022/04/04 05:46:20;;;;;;;14.02;8.60;;;;;;;3.93;69.62;101283.13;4753489;30;20032;-90
2022/04/04 05:48:46;;;;;;;13.07;8.30;;;;;;;3.99;69.68;101277.00;4737747;30;20295;-89
2022/04/04 05:51:13;;;;;;;16.02;7.93;;;;;;;4.07;69.36;101275.19;4742185;30;20036;-91
2022/04/04 05:53:39;;;;;;;12.57;7.75;;;;;;;4.06;69.75;101263.88;4737309;30;20104;-90
2022/04/04 05:56:04;;;;;;;10.82;7.60;;;;;;;4.05;69.27;101249.03;4739065;30;20486;-91
2022/04/04 05:58:30;;;;;;;11.30;7.32;;;;;;;4.17;69.22;101252.47;4736813;30;20040;-90
2022/04/04 06:00:56;;;;;;;14.77;8.48;;;;;;;4.06;69.08;101235.09;4740125;30;20123;-90
2022/04/04 06:03:21;;;;;;;11.65;8.48;;;;;;;4.12;69.18;101242.03;4735969;30;20037;-91
2022/04/04 06:05:49;;;;;;;13.32;8.57;;;;;;;4.14;68.96;101236.78;4741864;30;20031;-90
2022/04/04 06:08:18;;;;;;;16.48;7.70;;;;;;;4.19;69.04;101240.22;4738917;30;20036;-91
2022/04/04 06:10:45;;;;;;;11.52;7.10;;;;;;;4.27;68.39;101220.97;4743409;30;20051;-90
2022/04/04 06:13:18;;;;;;;12.93;7.63;;;;;;;4.34;68.47;101227.91;4750652;30;20085;-91
2022/04/04 06:15:45;;;;;;;12.98;7.78;;;;;;;4.43;68.39;101229.56;4740914;30;20493;-89
2022/04/04 06:18:11;;;;;;;13.13;8.77;;;;;;;4.36;68.07;101220.03;4742410;30;20660;-91
2022/04/04 06:20:36;;;;;;;16.27;9.55;;;;;;;4.48;67.88;101217.31;4740001;30;20032;-91
2022/04/04 06:23:02;;;;;;;16.45;8.38;;;;;;;4.53;67.60;101205.03;4737623;30;20127;-91
2022/04/04 06:25:28;;;;;;;13.45;8.05;;;;;;;4.54;67.64;101213.75;4740495;30;21028;-90
2022/04/04 06:27:53;;;;;;;12.15;7.80;;;;;;;4.70;67.25;101211.84;4743145;30;20113;-90
2022/04/04 06:30:20;;;;;;;14.15;8.07;;;;;;;4.69;67.08;101212.75;4740409;30;20040;-91
2022/04/04 06:32:46;;;;;;;12.38;7.57;;;;;;;4.73;66.40;101196.97;4739858;30;20040;-91
2022/04/04 06:35:12;;;;;;;13.70;8.18;;;;;;;4.79;66.88;101198.66;4741032;30;20039;-91
2022/04/04 06:37:37;;;;;;;14.55;8.77;;;;;;;4.63;66.60;101184.88;4742236;30;20067;-93
2022/04/04 06:40:04;;;;;;;16.58;10.20;;;;;;;4.72;66.80;101183.91;4755451;30;20043;-91
2022/04/04 06:42:37;;;;;;;13.00;7.97;;;;;;;4.92;66.57;101205.50;4741743;30;20556;-90
2022/04/04 06:45:04;;;;;;;12.38;8.00;;;;;;;4.89;65.98;101171.47;4746355;30;20046;-92
2022/04/04 06:47:30;;;;;;;15.93;9.57;;;;;;;5.02;66.41;101177.44;4757644;30;20039;-90
2022/04/04 06:49:56;;;;;;;12.80;7.68;;;;;;;5.07;65.81;101178.25;4756571;30;20035;-91
2022/04/04 06:52:23;;;;;;;15.35;8.25;;;;;;;5.16;65.53;101174.66;4745297;30;20159;-91
2022/04/04 06:54:49;;;;;;;10.15;8.73;;;;;;;5.06;65.51;101169.53;4746196;30;20359;-92
2022/04/04 06:57:16;;;;;;;13.05;8.73;;;;;;;5.05;65.60;101169.56;4760283;30;20032;-92
2022/04/04 06:59:42;;;;;;;11.43;7.60;;;;;;;5.19;65.47;101165.00;4739871;30;20031;-92
2022/04/04 07:02:08;;;;;;;12.68;7.82;;;;;;;5.31;65.44;101158.72;4741528;30;20051;-91
2022/04/04 07:04:33;;;;;;;12.55;6.78;;;;;;;5.29;65.26;101147.41;4746088;30;20036;-91
2022/04/04 07:06:58;;;;;;;13.32;7.68;;;;;;;5.42;64.92;101141.09;4762995;30;20028;-92
2022/04/04 07:09:24;;;;;;;10.43;7.30;;;;;;;5.51;64.76;101142.75;4742422;30;20394;-91
2022/04/04 07:11:51;;;;;;;12.07;8.40;;;;;;;5.56;64.39;101122.56;4762163;30;20040;-91
2022/04/04 07:14:19;;;;;;;14.00;8.48;;;;;;;5.59;63.82;101143.47;4761461;30;21457;-91
2022/04/04 07:16:45;;;;;;;12.30;8.63;;;;;;;5.55;63.77;101111.19;4744849;30;20398;-91
2022/04/04 07:19:15;;;;;;;11.07;7.40;;;;;;;5.69;63.22;101118.84;4744000;30;20031;-92
2022/04/04 07:21:41;;;;;;;9.98;7.68;;;;;;;5.77;63.64;101118.72;4741733;30;20040;-91
2022/04/04 07:24:07;;;;;;;8.90;7.38;;;;;;;5.75;62.81;101100.38;4738658;30;20034;-91
2022/04/04 07:26:32;;;;;;;12.73;7.50;;;;;;;5.80;63.08;101101.19;4744390;30;20039;-89
2022/04/04 07:28:57;;;;;;;12.13;8.82;;;;;;;5.71;62.64;101085.59;4756725;30;21953;-90
2022/04/04 07:31:23;;;;;;;11.68;8.30;;;;;;;5.85;62.51;101080.13;4742499;30;20043;-90
2022/04/04 07:33:48;;;;;;;10.32;7.32;;;;;;;5.93;62.43;101085.28;4741896;30;20489;-90
2022/04/04 07:36:13;;;;;;;10.63;7.47;;;;;;;5.93;62.07;101069.53;4745089;30;20036;-91
2022/04/04 07:38:39;;;;;;;9.82;6.85;;;;;;;6.06;62.22;101068.41;4742493;30;20062;-91
2022/04/04 07:41:04;;;;;;;11.93;7.03;;;;;;;6.06;61.94;101074.53;4743367;30;20100;-90
2022/04/04 07:43:29;;;;;;;14.10;8.07;;;;;;;6.22;62.26;101085.63;4740293;30;20139;-90
2022/04/04 07:45:55;;;;;;;10.95;7.45;;;;;;;6.29;62.28;101078.47;4757805;30;20229;-91
2022/04/04 07:48:20;;;;;;;10.23;7.60;;;;;;;6.32;61.56;101067.94;4757529;30;20035;-91
2022/04/04 07:50:46;;;;;;;12.68;7.50;;;;;;;6.42;61.78;101065.97;4739781;30;20054;-92
2022/04/04 07:53:12;;;;;;;12.00;8.20;;;;;;;6.30;61.18;101053.97;4740000;30;20401;-90
2022/04/04 07:55:38;;;;;;;13.88;7.88;;;;;;;6.25;62.15;101047.91;4744177;30;20449;-90
2022/04/04 07:58:04;;;;;;;11.93;7.05;;;;;;;6.30;62.36;101049.59;4755655;30;20176;-91
2022/04/04 08:00:29;;;;;;;8.60;6.50;;;;;;;6.31;62.26;101037.31;4742297;30;20048;-91
2022/04/04 08:02:55;;;;;;;12.07;7.32;;;;;;;6.26;61.85;101028.66;4737798;30;20036;-90
2022/04/04 08:05:21;;;;;;;8.90;7.15;;;;;;;6.43;61.83;101031.81;4744307;30;20092;-90
2022/04/04 08:07:48;;;;;;;12.20;8.57;;;;;;;6.55;61.73;101034.19;4743872;30;20027;-90
2022/04/04 08:10:14;;;;;;;10.77;7.68;;;;;;;6.60;61.73;101013.09;4758480;30;20457;-91
2022/04/04 08:12:40;;;;;;;10.55;7.63;;;;;;;6.63;61.20;101011.28;4754553;30;20122;-90
2022/04/04 08:15:05;;;;;;;11.27;8.23;;;;;;;6.59;61.51;101009.59;4760929;30;20123;-90
2022/04/04 08:17:31;;;;;;;10.15;6.65;;;;;;;6.86;60.94;101009.91;4739404;30;20050;-91
2022/04/04 08:19:57;;;;;;;10.70;8.25;;;;;;;6.88;60.80;101002.84;4757630;30;20379;-90
2022/04/04 08:22:22;;;;;;;9.98;7.20;;;;;;;6.89;60.43;100991.44;4740219;30;20042;-92
2022/04/04 08:24:49;;;;;;;13.02;7.65;;;;;;;6.90;60.44;101001.03;4742018;30;20553;-91
2022/04/04 08:27:14;;;;;;;9.93;6.45;;;;;;;7.05;59.66;100990.19;4757894;30;20481;-91
2022/04/04 08:29:40;;;;;;;9.98;7.20;;;;;;;7.01;59.38;100978.03;4753570;30;20287;-93
2022/04/04 08:32:06;;;;;;;11.05;7.43;;;;;;;7.14;59.21;100989.13;4740840;30;20405;-91
2022/04/04 08:34:32;;;;;;;11.10;6.95;;;;;;;7.29;58.47;100977.34;4741741;30;20098;-91
2022/04/04 08:36:57;;;;;;;8.55;6.75;;;;;;;7.19;58.33;100967.97;4744260;30;20042;-89
2022/04/04 08:39:23;;;;;;;9.98;7.68;;;;;;;7.24;58.67;100963.47;4738798;30;20060;-92
2022/04/04 08:41:48;;;;;;;19.70;6.57;;;;;;;7.56;58.20;100967.91;4757311;30;20036;-91
2022/04/04 08:44:16;;;;;;;14.32;6.72;;;;;;;7.62;57.96;100963.34;4740383;30;20074;-90
2022/04/04 08:46:43;;;;;;;10.93;6.75;;;;;;;7.69;56.32;100945.63;4738595;30;20035;-91
2022/04/04 08:49:09;;;;;;;8.70;6.28;;;;;;;7.80;56.75;100926.94;4743138;30;20054;-92
2022/04/04 08:51:36;;;;;;;11.15;6.03;;;;;;;7.86;56.52;100945.19;4741312;30;20401;-92
2022/04/04 08:54:02;;;;;;;17.73;6.55;;;;;;;7.76;56.56;100959.50;4744009;30;20046;-90
2022/04/04 08:56:27;;;;;;;12.07;6.65;;;;;;;7.75;56.42;100948.13;4758206;30;20538;-91
2022/04/04 08:58:54;;;;;;;9.10;6.07;;;;;;;7.83;55.94;100932.09;4751397;30;20063;-89
2022/04/04 09:01:21;;;;;;;14.65;5.93;;;;;;;7.76;56.48;100927.91;4741556;30;20050;-89
2022/04/04 09:04:16;;;;;;;13.05;6.15;;;;;;;7.84;57.02;100939.09;4754882;30;20047;-91
2022/04/04 09:06:56;;;;;;;13.73;6.82;;;;;;;7.76;56.99;100943.72;4758522;30;20489;-91
2022/04/04 09:09:26;;;;;;;13.25;7.30;;;;;;;7.70;57.10;100938.63;4738269;30;20762;-89
2022/04/04 09:12:03;;;;;;;10.32;7.18;;;;;;;7.61;58.48;100914.28;4742540;30;20063;-90
2022/04/04 09:14:29;;;;;;;8.65;6.63;;;;;;;7.57;57.29;100901.25;4738794;30;20035;-90
2022/04/04 09:16:56;;;;;;;12.15;7.35;;;;;;;7.52;58.25;100901.38;4758645;30;20101;-90
2022/04/04 09:19:30;;;;;;;11.55;6.47;;;;;;;7.56;58.38;100910.03;4740733;30;20609;-91
2022/04/04 09:21:57;;;;;;;12.43;6.93;;;;;;;7.56;58.75;100908.28;4740815;30;20036;-92
2022/04/04 09:24:42;;;;;;;9.45;5.93;;;;;;;7.55;58.86;100916.19;4744431;30;20035;-92
2022/04/04 09:27:27;;;;;;;12.73;6.30;;;;;;;7.51;59.55;100914.56;4737505;30;20139;-89
2022/04/04 09:30:02;;;;;;;10.02;6.30;;;;;;;7.50;59.19;100899.66;4739593;30;21760;-90
2022/04/04 09:32:42;;;;;;;12.77;6.53;;;;;;;7.62;59.50;100907.25;4737352;30;20035;-92
2022/04/04 09:35:13;;;;;;;11.10;6.93;;;;;;;7.46;61.61;100893.66;4743139;30;20935;-89
2022/04/04 09:37:41;;;;;;;9.77;6.63;;;;;;;7.20;62.31;100882.94;4738290;30;20032;-89
2022/04/04 09:40:16;;;;;;;14.35;7.45;;;;;;;7.23;63.11;100894.25;4743557;30;20584;-90
2022/04/04 09:42:58;;;;;;;10.18;6.18;;;;;;;7.29;62.87;100894.06;4741188;30;20525;-89
2022/04/04 09:45:31;;;;;;;14.85;7.88;;;;;;;7.25;64.93;100894.19;4757153;30;20032;-90
2022/04/04 09:47:57;;;;;;;12.45;9.05;;;;;;;7.18;65.01;100892.59;4739776;30;20027;-89
2022/04/04 09:50:46;;;;;;;12.80;7.75;;;;;;;7.18;63.95;100882.09;4741540;30;20059;-90
2022/04/04 09:53:16;;;;;;;12.93;7.57;;;;;;;7.21;65.67;100892.53;4738069;30;20604;-89
2022/04/04 09:55:44;;;;;;;11.75;7.90;;;;;;;7.20;65.19;100885.56;4758077;30;20043;-90
2022/04/04 09:58:14;;;;;;;10.30;7.25;;;;;;;7.07;65.68;100872.72;4738433;30;20411;-89
2022/04/04 10:00:42;;;;;;;10.65;7.35;;;;;;;7.00;65.60;100863.28;4756293;30;20038;-89
2022/04/04 10:03:12;;;;;;;12.85;7.13;;;;;;;7.02;66.06;100869.34;4739591;30;20409;-89
2022/04/04 10:05:40;;;;;;;17.58;9.60;;;;;;;6.83;72.98;100876.81;4757153;30;20307;-90
2022/04/04 10:08:07;;;;;;;12.68;8.73;;;;;;;6.79;71.15;100863.78;4736888;30;20117;-90
2022/04/04 10:10:32;;;;;;;13.50;8.32;;;;;;;6.82;70.43;100867.22;4741983;30;20444;-89
2022/04/04 10:12:58;;;;;;;13.98;8.80;;;;;;;6.81;70.61;100870.75;4738246;30;20040;-90
2022/04/04 10:15:25;;;;;;;14.05;7.65;;;;;;;6.77;71.79;100871.72;4756003;30;20098;-89
2022/04/04 10:17:52;;;;;;;18.17;9.93;;;;;;;6.69;72.91;100859.66;4741801;30;20035;-89
2022/04/04 10:20:19;;;;;;;12.57;8.15;;;;;;;6.76;72.30;100850.72;4741701;30;20043;-88
2022/04/04 10:22:47;;;;;;;11.70;8.10;;;;;;;6.75;72.19;100855.09;4739809;30;20035;-90
2022/04/04 10:25:14;;;;;;;14.20;9.43;;;;;;;6.72;72.68;100852.56;4740896;30;20035;-90
2022/04/04 10:27:43;;;;;;;17.70;9.85;;;;;;;6.69;73.29;100857.03;4756303;30;20075;-89
2022/04/04 10:30:10;;;;;;;14.95;9.13;;;;;;;6.61;73.06;100855.44;4742090;30;20114;-88
2022/04/04 10:32:48;;;;;;;13.63;9.60;;;;;;;6.65;73.02;100845.72;4739745;30;20043;-89
2022/04/04 10:35:21;;;;;;;11.88;7.28;;;;;;;6.78;72.90;100839.28;4740821;30;20085;-88
2022/04/04 10:37:47;;;;;;;15.63;9.77;;;;;;;6.67;73.42;100843.94;4759403;30;20092;-88
2022/04/04 10:40:33;;;;;;;17.25;9.80;;;;;;;6.79;73.88;100855.91;4739324;30;20059;-89
2022/04/04 10:43:14;;;;;;;13.90;9.68;;;;;;;6.72;74.01;100849.94;4737574;30;20142;-89
2022/04/04 10:45:53;;;;;;;14.32;10.18;;;;;;;6.57;75.63;100845.91;4739829;30;20451;-88
2022/04/04 10:48:20;;;;;;;15.70;10.40;;;;;;;6.54;75.90;100839.88;4755170;30;20044;-89
2022/04/04 10:50:45;;;;;;;19.77;11.52;;;;;;;6.41;76.97;100843.69;4737322;30;20086;-89
2022/04/04 10:53:10;;;;;;;18.95;12.27;;;;;;;6.43;77.81;100832.22;4739037;30;20479;-92
2022/04/04 10:55:36;;;;;;;17.67;11.25;;;;;;;6.50;76.35;100852.22;4741635;30;20035;-89
2022/04/04 10:58:07;;;;;;;14.45;10.82;;;;;;;6.43;76.93;100840.09;4757620;30;20451;-89
2022/04/04 11:00:36;;;;;;;15.57;11.10;;;;;;;6.46;77.33;100839.19;4751982;30;20071;-89
2022/04/04 11:03:02;;;;;;;18.70;12.23;;;;;;;6.31;78.55;100812.38;4755254;30;20055;-90
2022/04/04 11:08:23;;;;;;;12.30;9.23;;;;;;;6.37;79.18;100806.97;4756147;30;20054;-90
2022/04/04 11:10:53;;;;;;;22.10;11.05;;;;;;;6.46;79.62;100805.91;4745230;30;20373;-89
2022/04/04 11:13:20;;;;;;;14.02;9.50;;;;;;;6.37;79.33;100812.22;4739260;30;20466;-91
2022/04/04 11:15:55;;;;;;;15.55;10.73;;;;;;;6.39;79.85;100812.22;4759283;30;20039;-91
2022/04/04 11:18:21;;;;;;;18.35;10.13;;;;;;;6.41;81.47;100809.53;4738839;30;20071;-91
2022/04/04 11:20:53;;;;;;;17.65;11.40;;;;;;;6.24;81.51;100800.28;4762556;30;20035;-93
2022/04/04 11:23:20;;;;;;;18.58;12.55;;;;;;;6.34;81.37;100793.94;4744099;30;20130;-91
2022/04/04 11:25:53;;;;;;;16.77;10.75;;;;;;;6.32;80.52;100784.34;4741581;30;20058;-91
2022/04/04 11:28:22;;;;;;;13.45;10.45;;;;;;;6.31;80.37;100795.78;4756950;30;20123;-91
2022/04/04 11:30:52;;;;;;;12.48;10.30;;;;;;;6.25;79.39;100802.03;4755733;30;20401;-92
2022/04/04 11:33:22;;;;;;;11.57;9.02;;;;;;;6.24;79.87;100781.91;4757020;30;20032;-91